sensor_id;sensor_type;location;lat;lon;timestamp;pressure;altitude;pressure_sealevel;temperature;humidity
8286;BME280;4181;43.416;24.598;2023-01-08T00:00:51;100649.91;;;5.55;100.00
8286;BME280;4181;43.416;24.598;2023-01-08T00:03:16;100651.19;;;5.66;100.00
8286;BME280;4181;43.416;24.598;2023-01-08T00:05:43;100650.78;;;5.82;100.00
8286;BME280;4181;43.416;24.598;2023-01-08T00:08:09;100652.44;;;5.96;100.00
8286;BME280;4181;43.416;24.598;2023-01-08T00:10:36;100658.09;;;6.14;100.00
8286;BME280;4181;43.416;24.598;2023-01-08T00:13:03;100663.28;;;6.22;100.00
8286;BME280;4181;43.416;24.598;2023-01-08T00:15:29;100672.44;;;6.21;100.00
8286;BME280;4181;43.416;24.598;2023-01-08T00:17:56;100664.13;;;6.22;100.00
8286;BME280;4181;43.416;24.598;2023-01-08T00:20:21;100663.09;;;6.23;100.00
8286;BME280;4181;43.416;24.598;2023-01-08T00:22:48;100663.91;;;6.24;100.00
8286;BME280;4181;43.416;24.598;2023-01-08T00:25:13;100665.56;;;6.25;100.00
8286;BME280;4181;43.416;24.598;2023-01-08T00:27:39;100675.56;;;6.24;100.00
8286;BME280;4181;43.416;24.598;2023-01-08T00:30:05;100678.69;;;6.28;100.00
8286;BME280;4181;43.416;24.598;2023-01-08T00:32:30;100676.19;;;6.26;100.00
8286;BME280;4181;43.416;24.598;2023-01-08T00:34:57;100675.56;;;6.24;100.00
8286;BME280;4181;43.416;24.598;2023-01-08T00:37:23;100686.00;;;6.27;100.00
8286;BME280;4181;43.416;24.598;2023-01-08T00:39:49;100680.38;;;6.22;100.00
8286;BME280;4181;43.416;24.598;2023-01-08T00:42:15;100685.19;;;6.20;100.00
8286;BME280;4181;43.416;24.598;2023-01-08T00:44:42;100678.72;;;6.15;100.00
8286;BME280;4181;43.416;24.598;2023-01-08T00:47:07;100679.34;;;6.10;100.00
8286;BME280;4181;43.416;24.598;2023-01-08T00:49:33;100694.34;;;6.06;100.00
8286;BME280;4181;43.416;24.598;2023-01-08T00:51:58;100694.97;;;6.08;100.00
8286;BME280;4181;43.416;24.598;2023-01-08T00:54:23;100700.19;;;6.03;100.00
8286;BME280;4181;43.416;24.598;2023-01-08T00:56:49;100692.91;;;5.97;100.00
8286;BME280;4181;43.416;24.598;2023-01-08T00:59:14;100686.22;;;5.93;100.00
8286;BME280;4181;43.416;24.598;2023-01-08T01:01:40;100701.19;;;5.89;100.00
8286;BME280;4181;43.416;24.598;2023-01-08T01:04:05;100700.19;;;5.90;100.00
8286;BME280;4181;43.416;24.598;2023-01-08T01:06:31;100703.53;;;5.92;100.00
8286;BME280;4181;43.416;24.598;2023-01-08T01:08:56;100707.88;;;5.93;100.00
8286;BME280;4181;43.416;24.598;2023-01-08T01:11:24;100707.47;;;5.90;100.00
8286;BME280;4181;43.416;24.598;2023-01-08T01:13:51;100708.50;;;5.89;100.00
8286;BME280;4181;43.416;24.598;2023-01-08T01:16:16;100712.88;;;5.90;100.00
8286;BME280;4181;43.416;24.598;2023-01-08T01:18:42;100703.66;;;5.71;100.00
8286;BME280;4181;43.416;24.598;2023-01-08T01:21:09;100704.47;;;5.59;100.00
8286;BME280;4181;43.416;24.598;2023-01-08T01:23:35;100698.63;;;5.55;100.00
8286;BME280;4181;43.416;24.598;2023-01-08T01:26:01;100700.25;;;5.30;100.00
8286;BME280;4181;43.416;24.598;2023-01-08T01:28:26;100701.69;;;4.79;100.00
8286;BME280;4181;43.416;24.598;2023-01-08T01:30:55;100701.53;;;4.87;100.00
8286;BME280;4181;43.416;24.598;2023-01-08T01:33:21;100690.31;;;4.96;100.00
8286;BME280;4181;43.416;24.598;2023-01-08T01:35:47;100691.22;;;5.10;100.00
8286;BME280;4181;43.416;24.598;2023-01-08T01:38:13;100692.06;;;5.10;100.00
8286;BME280;4181;43.416;24.598;2023-01-08T01:40:42;100700.94;;;4.98;100.00
8286;BME280;4181;43.416;24.598;2023-01-08T01:43:12;100703.66;;;5.04;100.00
8286;BME280;4181;43.416;24.598;2023-01-08T01:45:38;100700.31;;;5.02;100.00
8286;BME280;4181;43.416;24.598;2023-01-08T01:48:12;100688.50;;;5.10;100.00
8286;BME280;4181;43.416;24.598;2023-01-08T01:50:43;100693.53;;;5.19;100.00
8286;BME280;4181;43.416;24.598;2023-01-08T01:53:23;100696.06;;;5.28;100.00
8286;BME280;4181;43.416;24.598;2023-01-08T01:55:50;100687.94;;;5.34;100.00
8286;BME280;4181;43.416;24.598;2023-01-08T01:58:21;100698.56;;;5.29;100.00
8286;BME280;4181;43.416;24.598;2023-01-08T02:00:48;100694.41;;;5.33;100.00
8286;BME280;4181;43.416;24.598;2023-01-08T02:03:15;100696.69;;;4.82;100.00
8286;BME280;4181;43.416;24.598;2023-01-08T02:06:05;100696.59;;;4.97;100.00
8286;BME280;4181;43.416;24.598;2023-01-08T02:08:44;100694.69;;;4.97;100.00
8286;BME280;4181;43.416;24.598;2023-01-08T02:14:01;100696.75;;;4.89;100.00
8286;BME280;4181;43.416;24.598;2023-01-08T02:16:46;100693.25;;;4.61;100.00
8286;BME280;4181;43.416;24.598;2023-01-08T02:19:38;100691.13;;;4.50;100.00
8286;BME280;4181;43.416;24.598;2023-01-08T02:28:09;100683.06;;;4.56;100.00
8286;BME280;4181;43.416;24.598;2023-01-08T02:30:37;100689.03;;;4.45;100.00
8286;BME280;4181;43.416;24.598;2023-01-08T02:33:02;100680.31;;;4.50;100.00
8286;BME280;4181;43.416;24.598;2023-01-08T02:35:41;100673.72;;;4.59;100.00
8286;BME280;4181;43.416;24.598;2023-01-08T02:38:12;100662.00;;;4.45;100.00
8286;BME280;4181;43.416;24.598;2023-01-08T02:43:19;100654.97;;;4.57;100.00
8286;BME280;4181;43.416;24.598;2023-01-08T02:45:55;100659.41;;;4.65;100.00
8286;BME280;4181;43.416;24.598;2023-01-08T02:51:09;100667.38;;;4.39;100.00
8286;BME280;4181;43.416;24.598;2023-01-08T02:53:40;100651.53;;;4.36;100.00
8286;BME280;4181;43.416;24.598;2023-01-08T02:56:10;100651.16;;;4.39;100.00
8286;BME280;4181;43.416;24.598;2023-01-08T02:58:38;100650.97;;;4.40;100.00
8286;BME280;4181;43.416;24.598;2023-01-08T03:01:07;100656.47;;;4.26;100.00
8286;BME280;4181;43.416;24.598;2023-01-08T03:03:34;100651.59;;;4.42;100.00
8286;BME280;4181;43.416;24.598;2023-01-08T03:06:05;100653.06;;;4.45;100.00
8286;BME280;4181;43.416;24.598;2023-01-08T03:08:39;100662.75;;;4.67;100.00
8286;BME280;4181;43.416;24.598;2023-01-08T03:11:08;100668.16;;;4.67;100.00
8286;BME280;4181;43.416;24.598;2023-01-08T03:13:46;100668.69;;;4.56;100.00
8286;BME280;4181;43.416;24.598;2023-01-08T03:16:17;100669.00;;;4.33;100.00
8286;BME280;4181;43.416;24.598;2023-01-08T03:18:51;100673.22;;;4.15;100.00
8286;BME280;4181;43.416;24.598;2023-01-08T03:21:20;100666.63;;;3.96;100.00
8286;BME280;4181;43.416;24.598;2023-01-08T03:23:47;100660.31;;;4.10;100.00
8286;BME280;4181;43.416;24.598;2023-01-08T03:26:19;100655.69;;;4.04;100.00
8286;BME280;4181;43.416;24.598;2023-01-08T03:28:48;100656.41;;;4.19;100.00
8286;BME280;4181;43.416;24.598;2023-01-08T03:31:17;100662.50;;;4.28;100.00
8286;BME280;4181;43.416;24.598;2023-01-08T03:33:44;100662.53;;;4.34;100.00
8286;BME280;4181;43.416;24.598;2023-01-08T03:36:13;100669.84;;;4.34;100.00
8286;BME280;4181;43.416;24.598;2023-01-08T03:38:44;100671.81;;;4.19;100.00
8286;BME280;4181;43.416;24.598;2023-01-08T03:41:14;100673.44;;;3.64;100.00
8286;BME280;4181;43.416;24.598;2023-01-08T03:43:42;100660.28;;;3.82;100.00
8286;BME280;4181;43.416;24.598;2023-01-08T03:46:13;100663.69;;;3.91;100.00
8286;BME280;4181;43.416;24.598;2023-01-08T03:48:41;100651.56;;;4.08;100.00
8286;BME280;4181;43.416;24.598;2023-01-08T03:51:09;100654.19;;;4.29;100.00
8286;BME280;4181;43.416;24.598;2023-01-08T03:53:35;100668.72;;;4.22;100.00
8286;BME280;4181;43.416;24.598;2023-01-08T03:56:00;100655.53;;;4.40;100.00
8286;BME280;4181;43.416;24.598;2023-01-08T03:58:26;100662.44;;;4.49;100.00
8286;BME280;4181;43.416;24.598;2023-01-08T04:00:52;100662.03;;;4.52;100.00
8286;BME280;4181;43.416;24.598;2023-01-08T04:03:17;100663.53;;;4.61;100.00
8286;BME280;4181;43.416;24.598;2023-01-08T04:05:43;100674.09;;;4.56;100.00
8286;BME280;4181;43.416;24.598;2023-01-08T04:08:09;100672.84;;;4.52;100.00
8286;BME280;4181;43.416;24.598;2023-01-08T04:10:34;100685.72;;;4.50;100.00
8286;BME280;4181;43.416;24.598;2023-01-08T04:13:01;100688.78;;;4.40;100.00
8286;BME280;4181;43.416;24.598;2023-01-08T04:15:26;100690.00;;;4.38;100.00
8286;BME280;4181;43.416;24.598;2023-01-08T04:17:52;100684.44;;;4.46;100.00
8286;BME280;4181;43.416;24.598;2023-01-08T04:20:18;100682.28;;;4.35;100.00
8286;BME280;4181;43.416;24.598;2023-01-08T04:22:44;100680.03;;;4.11;100.00
8286;BME280;4181;43.416;24.598;2023-01-08T04:25:09;100690.06;;;4.17;100.00
8286;BME280;4181;43.416;24.598;2023-01-08T04:27:35;100687.53;;;4.09;100.00
8286;BME280;4181;43.416;24.598;2023-01-08T04:30:01;100685.44;;;4.11;100.00
8286;BME280;4181;43.416;24.598;2023-01-08T04:32:27;100682.13;;;4.09;100.00
8286;BME280;4181;43.416;24.598;2023-01-08T04:34:52;100682.72;;;4.11;100.00
8286;BME280;4181;43.416;24.598;2023-01-08T04:37:17;100691.72;;;4.18;100.00
8286;BME280;4181;43.416;24.598;2023-01-08T04:39:43;100695.53;;;4.23;100.00
8286;BME280;4181;43.416;24.598;2023-01-08T04:42:08;100695.56;;;4.30;100.00
8286;BME280;4181;43.416;24.598;2023-01-08T04:44:34;100701.22;;;4.35;100.00
8286;BME280;4181;43.416;24.598;2023-01-08T04:46:59;100706.66;;;4.41;100.00
8286;BME280;4181;43.416;24.598;2023-01-08T04:49:25;100718.47;;;4.34;100.00
8286;BME280;4181;43.416;24.598;2023-01-08T04:51:50;100698.81;;;4.19;100.00
8286;BME280;4181;43.416;24.598;2023-01-08T04:54:16;100708.53;;;4.13;100.00
8286;BME280;4181;43.416;24.598;2023-01-08T04:56:41;100707.19;;;4.03;100.00
8286;BME280;4181;43.416;24.598;2023-01-08T04:59:06;100706.44;;;3.87;100.00
8286;BME280;4181;43.416;24.598;2023-01-08T05:01:32;100710.69;;;3.97;100.00
8286;BME280;4181;43.416;24.598;2023-01-08T05:04:00;100712.47;;;3.89;100.00
8286;BME280;4181;43.416;24.598;2023-01-08T05:06:28;100707.47;;;3.86;100.00
8286;BME280;4181;43.416;24.598;2023-01-08T05:08:55;100708.13;;;3.88;100.00
8286;BME280;4181;43.416;24.598;2023-01-08T05:11:20;100703.78;;;3.94;100.00
8286;BME280;4181;43.416;24.598;2023-01-08T05:13:47;100698.44;;;4.01;100.00
8286;BME280;4181;43.416;24.598;2023-01-08T05:16:13;100705.63;;;3.87;100.00
8286;BME280;4181;43.416;24.598;2023-01-08T05:18:38;100709.41;;;3.71;100.00
8286;BME280;4181;43.416;24.598;2023-01-08T05:21:04;100702.59;;;3.75;100.00
8286;BME280;4181;43.416;24.598;2023-01-08T05:23:31;100704.50;;;3.39;100.00
8286;BME280;4181;43.416;24.598;2023-01-08T05:25:58;100705.41;;;3.11;100.00
8286;BME280;4181;43.416;24.598;2023-01-08T05:28:24;100705.53;;;3.38;100.00
8286;BME280;4181;43.416;24.598;2023-01-08T05:30:50;100697.44;;;3.38;100.00
8286;BME280;4181;43.416;24.598;2023-01-08T05:33:15;100697.31;;;3.46;100.00
8286;BME280;4181;43.416;24.598;2023-01-08T05:35:42;100690.19;;;3.60;100.00
8286;BME280;4181;43.416;24.598;2023-01-08T05:38:07;100690.19;;;3.81;100.00
8286;BME280;4181;43.416;24.598;2023-01-08T05:40:33;100709.38;;;3.92;100.00
8286;BME280;4181;43.416;24.598;2023-01-08T05:42:59;100712.13;;;3.99;100.00
8286;BME280;4181;43.416;24.598;2023-01-08T05:45:25;100724.81;;;3.99;100.00
8286;BME280;4181;43.416;24.598;2023-01-08T05:47:51;100730.56;;;3.96;100.00
8286;BME280;4181;43.416;24.598;2023-01-08T05:50:16;100734.66;;;3.85;100.00
8286;BME280;4181;43.416;24.598;2023-01-08T05:52:42;100729.69;;;3.67;100.00
8286;BME280;4181;43.416;24.598;2023-01-08T05:55:07;100729.44;;;3.41;100.00
8286;BME280;4181;43.416;24.598;2023-01-08T05:57:33;100719.69;;;3.26;100.00
8286;BME280;4181;43.416;24.598;2023-01-08T05:59:58;100713.88;;;3.08;100.00
8286;BME280;4181;43.416;24.598;2023-01-08T06:02:24;100708.84;;;3.19;100.00
8286;BME280;4181;43.416;24.598;2023-01-08T06:04:49;100702.16;;;3.15;100.00
8286;BME280;4181;43.416;24.598;2023-01-08T06:07:15;100703.84;;;3.37;100.00
8286;BME280;4181;43.416;24.598;2023-01-08T06:09:40;100691.47;;;3.64;100.00
8286;BME280;4181;43.416;24.598;2023-01-08T06:12:06;100690.34;;;4.01;100.00
8286;BME280;4181;43.416;24.598;2023-01-08T06:14:31;100695.97;;;4.27;100.00
8286;BME280;4181;43.416;24.598;2023-01-08T06:16:57;100712.41;;;4.66;100.00
8286;BME280;4181;43.416;24.598;2023-01-08T06:19:22;100722.78;;;4.96;100.00
8286;BME280;4181;43.416;24.598;2023-01-08T06:21:48;100731.19;;;5.21;100.00
8286;BME280;4181;43.416;24.598;2023-01-08T06:24:13;100737.31;;;5.43;100.00
8286;BME280;4181;43.416;24.598;2023-01-08T06:26:39;100744.78;;;5.34;100.00
8286;BME280;4181;43.416;24.598;2023-01-08T06:29:04;100751.81;;;5.22;100.00
8286;BME280;4181;43.416;24.598;2023-01-08T06:31:30;100751.50;;;5.51;100.00
8286;BME280;4181;43.416;24.598;2023-01-08T06:33:55;100741.97;;;5.68;100.00
8286;BME280;4181;43.416;24.598;2023-01-08T06:36:21;100734.75;;;6.08;100.00
8286;BME280;4181;43.416;24.598;2023-01-08T06:38:48;100739.53;;;6.06;100.00
8286;BME280;4181;43.416;24.598;2023-01-08T06:41:13;100741.22;;;6.13;100.00
8286;BME280;4181;43.416;24.598;2023-01-08T06:43:39;100739.38;;;6.20;100.00
8286;BME280;4181;43.416;24.598;2023-01-08T06:46:06;100736.44;;;6.28;100.00
8286;BME280;4181;43.416;24.598;2023-01-08T06:48:33;100738.13;;;6.43;100.00
8286;BME280;4181;43.416;24.598;2023-01-08T06:50:59;100731.97;;;6.80;100.00
8286;BME280;4181;43.416;24.598;2023-01-08T06:53:26;100720.88;;;7.01;100.00
8286;BME280;4181;43.416;24.598;2023-01-08T06:55:51;100725.44;;;7.07;100.00
8286;BME280;4181;43.416;24.598;2023-01-08T06:58:22;100718.84;;;7.40;100.00
8286;BME280;4181;43.416;24.598;2023-01-08T07:00:49;100736.34;;;7.44;100.00
8286;BME280;4181;43.416;24.598;2023-01-08T07:03:14;100731.66;;;7.58;100.00
8286;BME280;4181;43.416;24.598;2023-01-08T07:05:40;100737.53;;;7.55;100.00
8286;BME280;4181;43.416;24.598;2023-01-08T07:08:05;100731.22;;;7.67;100.00
8286;BME280;4181;43.416;24.598;2023-01-08T07:10:34;100743.78;;;7.62;100.00
8286;BME280;4181;43.416;24.598;2023-01-08T07:12:59;100729.34;;;7.99;100.00
8286;BME280;4181;43.416;24.598;2023-01-08T07:15:25;100730.59;;;7.97;100.00
8286;BME280;4181;43.416;24.598;2023-01-08T07:17:50;100726.25;;;8.20;100.00
8286;BME280;4181;43.416;24.598;2023-01-08T07:20:16;100730.88;;;8.44;100.00
8286;BME280;4181;43.416;24.598;2023-01-08T07:22:41;100726.09;;;8.64;100.00
8286;BME280;4181;43.416;24.598;2023-01-08T07:25:07;100727.75;;;8.83;100.00
8286;BME280;4181;43.416;24.598;2023-01-08T07:27:32;100724.34;;;8.88;100.00
8286;BME280;4181;43.416;24.598;2023-01-08T07:29:58;100729.28;;;8.79;100.00
8286;BME280;4181;43.416;24.598;2023-01-08T07:32:23;100712.97;;;8.98;100.00
8286;BME280;4181;43.416;24.598;2023-01-08T07:34:50;100713.00;;;9.27;100.00
8286;BME280;4181;43.416;24.598;2023-01-08T07:37:18;100715.03;;;9.32;100.00
8286;BME280;4181;43.416;24.598;2023-01-08T07:39:43;100717.91;;;9.37;100.00
8286;BME280;4181;43.416;24.598;2023-01-08T07:42:09;100728.63;;;9.50;100.00
8286;BME280;4181;43.416;24.598;2023-01-08T07:44:34;100715.28;;;9.60;100.00
8286;BME280;4181;43.416;24.598;2023-01-08T07:47:00;100728.28;;;9.46;100.00
8286;BME280;4181;43.416;24.598;2023-01-08T07:49:25;100724.66;;;9.64;100.00
8286;BME280;4181;43.416;24.598;2023-01-08T07:51:50;100713.06;;;9.98;100.00
8286;BME280;4181;43.416;24.598;2023-01-08T07:54:16;100711.47;;;10.20;100.00
8286;BME280;4181;43.416;24.598;2023-01-08T07:56:41;100695.84;;;10.50;100.00
8286;BME280;4181;43.416;24.598;2023-01-08T07:59:07;100694.19;;;10.72;100.00
8286;BME280;4181;43.416;24.598;2023-01-08T08:01:32;100691.03;;;11.03;100.00
8286;BME280;4181;43.416;24.598;2023-01-08T08:03:58;100675.91;;;11.24;100.00
8286;BME280;4181;43.416;24.598;2023-01-08T08:06:23;100690.31;;;11.47;100.00
8286;BME280;4181;43.416;24.598;2023-01-08T08:08:49;100680.97;;;11.60;100.00
8286;BME280;4181;43.416;24.598;2023-01-08T08:11:14;100680.31;;;11.65;100.00
8286;BME280;4181;43.416;24.598;2023-01-08T08:13:39;100680.97;;;11.60;100.00
8286;BME280;4181;43.416;24.598;2023-01-08T08:16:09;100685.31;;;11.84;100.00
8286;BME280;4181;43.416;24.598;2023-01-08T08:18:34;100677.38;;;11.99;100.00
8286;BME280;4181;43.416;24.598;2023-01-08T08:21:00;100680.38;;;12.14;100.00
8286;BME280;4181;43.416;24.598;2023-01-08T08:23:25;100674.88;;;12.31;100.00
8286;BME280;4181;43.416;24.598;2023-01-08T08:25:51;100683.69;;;12.33;100.00
8286;BME280;4181;43.416;24.598;2023-01-08T08:28:16;100687.47;;;12.32;100.00
8286;BME280;4181;43.416;24.598;2023-01-08T08:30:42;100673.78;;;12.48;100.00
8286;BME280;4181;43.416;24.598;2023-01-08T08:33:08;100683.34;;;12.46;100.00
8286;BME280;4181;43.416;24.598;2023-01-08T08:35:33;100688.63;;;12.52;100.00
8286;BME280;4181;43.416;24.598;2023-01-08T08:37:59;100682.47;;;12.62;100.00
8286;BME280;4181;43.416;24.598;2023-01-08T08:40:26;100680.63;;;12.84;100.00
8286;BME280;4181;43.416;24.598;2023-01-08T08:42:58;100681.13;;;12.81;100.00
8286;BME280;4181;43.416;24.598;2023-01-08T08:45:25;100683.56;;;12.99;100.00
8286;BME280;4181;43.416;24.598;2023-01-08T08:47:50;100685.31;;;13.05;100.00
8286;BME280;4181;43.416;24.598;2023-01-08T08:50:16;100679.28;;;13.25;100.00
8286;BME280;4181;43.416;24.598;2023-01-08T08:52:42;100679.13;;;13.36;100.00
8286;BME280;4181;43.416;24.598;2023-01-08T08:55:10;100676.94;;;13.60;100.00
8286;BME280;4181;43.416;24.598;2023-01-08T08:57:40;100671.56;;;13.70;100.00
8286;BME280;4181;43.416;24.598;2023-01-08T09:00:06;100678.53;;;13.82;100.00
8286;BME280;4181;43.416;24.598;2023-01-08T09:02:32;100675.53;;;13.84;100.00
8286;BME280;4181;43.416;24.598;2023-01-08T09:04:57;100670.97;;;13.94;100.00
8286;BME280;4181;43.416;24.598;2023-01-08T09:07:23;100681.81;;;13.79;100.00
8286;BME280;4181;43.416;24.598;2023-01-08T09:09:50;100674.72;;;13.83;100.00
8286;BME280;4181;43.416;24.598;2023-01-08T09:12:15;100665.91;;;14.08;100.00
8286;BME280;4181;43.416;24.598;2023-01-08T09:14:41;100660.59;;;14.28;100.00
8286;BME280;4181;43.416;24.598;2023-01-08T09:17:06;100657.66;;;14.40;100.00
8286;BME280;4181;43.416;24.598;2023-01-08T09:19:32;100660.91;;;14.32;100.00
8286;BME280;4181;43.416;24.598;2023-01-08T09:21:57;100647.41;;;14.62;100.00
8286;BME280;4181;43.416;24.598;2023-01-08T09:24:22;100650.50;;;14.75;100.00
8286;BME280;4181;43.416;24.598;2023-01-08T09:26:48;100634.34;;;14.89;100.00
8286;BME280;4181;43.416;24.598;2023-01-08T09:29:13;100627.84;;;15.05;100.00
8286;BME280;4181;43.416;24.598;2023-01-08T09:31:39;100626.78;;;15.21;100.00
8286;BME280;4181;43.416;24.598;2023-01-08T09:34:04;100624.56;;;15.13;100.00
8286;BME280;4181;43.416;24.598;2023-01-08T09:36:30;100613.63;;;15.33;100.00
8286;BME280;4181;43.416;24.598;2023-01-08T09:38:55;100612.53;;;15.34;100.00
8286;BME280;4181;43.416;24.598;2023-01-08T09:41:27;100612.03;;;15.52;100.00
8286;BME280;4181;43.416;24.598;2023-01-08T09:43:55;100603.28;;;15.60;100.00
8286;BME280;4181;43.416;24.598;2023-01-08T09:46:25;100604.09;;;15.66;100.00
8286;BME280;4181;43.416;24.598;2023-01-08T09:48:54;100599.44;;;15.76;100.00
8286;BME280;4181;43.416;24.598;2023-01-08T09:51:29;100602.75;;;15.88;100.00
8286;BME280;4181;43.416;24.598;2023-01-08T09:53:56;100589.56;;;15.85;100.00
8286;BME280;4181;43.416;24.598;2023-01-08T09:56:22;100583.22;;;16.00;100.00
8286;BME280;4181;43.416;24.598;2023-01-08T09:58:50;100576.59;;;16.16;100.00
8286;BME280;4181;43.416;24.598;2023-01-08T10:01:27;100578.53;;;16.10;100.00
8286;BME280;4181;43.416;24.598;2023-01-08T10:09:40;100563.34;;;16.38;100.00
8286;BME280;4181;43.416;24.598;2023-01-08T10:12:06;100564.19;;;16.49;100.00
8286;BME280;4181;43.416;24.598;2023-01-08T10:14:36;100559.22;;;16.40;100.00
8286;BME280;4181;43.416;24.598;2023-01-08T10:17:30;100553.16;;;16.49;100.00
8286;BME280;4181;43.416;24.598;2023-01-08T10:20:00;100550.38;;;16.43;100.00
8286;BME280;4181;43.416;24.598;2023-01-08T10:22:31;100550.59;;;16.72;100.00
8286;BME280;4181;43.416;24.598;2023-01-08T10:25:12;100548.13;;;16.71;100.00
8286;BME280;4181;43.416;24.598;2023-01-08T10:27:52;100544.47;;;16.85;100.00
8286;BME280;4181;43.416;24.598;2023-01-08T10:30:40;100545.97;;;16.53;100.00
8286;BME280;4181;43.416;24.598;2023-01-08T10:33:10;100550.38;;;16.54;100.00
8286;BME280;4181;43.416;24.598;2023-01-08T10:35:38;100542.91;;;16.59;100.00
8286;BME280;4181;43.416;24.598;2023-01-08T10:38:04;100539.53;;;16.82;100.00
8286;BME280;4181;43.416;24.598;2023-01-08T10:40:46;100539.28;;;16.79;100.00
8286;BME280;4181;43.416;24.598;2023-01-08T10:43:16;100539.91;;;16.61;100.00
8286;BME280;4181;43.416;24.598;2023-01-08T10:45:52;100542.72;;;16.46;100.00
8286;BME280;4181;43.416;24.598;2023-01-08T10:48:19;100536.53;;;16.74;100.00
8286;BME280;4181;43.416;24.598;2023-01-08T10:50:44;100535.75;;;16.63;100.00
8286;BME280;4181;43.416;24.598;2023-01-08T10:53:24;100527.72;;;16.72;100.00
8286;BME280;4181;43.416;24.598;2023-01-08T10:56:02;100538.22;;;16.65;100.00
8286;BME280;4181;43.416;24.598;2023-01-08T10:58:29;100541.09;;;16.09;100.00
8286;BME280;4181;43.416;24.598;2023-01-08T11:01:29;100544.69;;;16.00;100.00
8286;BME280;4181;43.416;24.598;2023-01-08T11:04:00;100536.69;;;16.08;100.00
8286;BME280;4181;43.416;24.598;2023-01-08T11:06:32;100541.09;;;16.09;100.00
8286;BME280;4181;43.416;24.598;2023-01-08T11:09:00;100549.63;;;15.98;100.00
8286;BME280;4181;43.416;24.598;2023-01-08T11:11:36;100547.72;;;15.68;100.00
8286;BME280;4181;43.416;24.598;2023-01-08T11:14:05;100558.72;;;15.53;100.00
8286;BME280;4181;43.416;24.598;2023-01-08T11:16:38;100565.78;;;15.34;100.00
8286;BME280;4181;43.416;24.598;2023-01-08T11:19:15;100560.34;;;15.44;100.00
8286;BME280;4181;43.416;24.598;2023-01-08T11:21:41;100544.69;;;15.75;100.00
8286;BME280;4181;43.416;24.598;2023-01-08T11:24:17;100553.22;;;15.53;100.00
8286;BME280;4181;43.416;24.598;2023-01-08T11:26:47;100545.25;;;15.92;100.00
8286;BME280;4181;43.416;24.598;2023-01-08T11:29:17;100549.91;;;16.01;100.00
8286;BME280;4181;43.416;24.598;2023-01-08T11:31:54;100558.72;;;15.88;100.00
8286;BME280;4181;43.416;24.598;2023-01-08T11:34:30;100547.44;;;16.00;100.00
8286;BME280;4181;43.416;24.598;2023-01-08T11:37:23;100537.78;;;15.87;100.00
8286;BME280;4181;43.416;24.598;2023-01-08T11:39:53;100537.78;;;16.07;100.00
8286;BME280;4181;43.416;24.598;2023-01-08T11:47:47;100529.53;;;15.77;100.00
8286;BME280;4181;43.416;24.598;2023-01-08T11:50:21;100533.97;;;15.78;100.00
8286;BME280;4181;43.416;24.598;2023-01-08T12:06:46;100560.00;;;14.54;100.00
8286;BME280;4181;43.416;24.598;2023-01-08T12:15:56;100581.75;;;13.55;100.00
8286;BME280;4181;43.416;24.598;2023-01-08T12:32:48;100572.47;;;13.30;100.00
8286;BME280;4181;43.416;24.598;2023-01-08T12:35:24;100573.47;;;13.50;100.00
8286;BME280;4181;43.416;24.598;2023-01-08T12:40:29;100564.03;;;13.36;100.00
8286;BME280;4181;43.416;24.598;2023-01-08T12:42:57;100561.16;;;13.53;100.00
8286;BME280;4181;43.416;24.598;2023-01-08T12:48:32;100581.13;;;13.00;100.00
8286;BME280;4181;43.416;24.598;2023-01-08T13:02:30;100585.31;;;12.05;100.00
8286;BME280;4181;43.416;24.598;2023-01-08T13:04:57;100587.88;;;11.95;100.00
8286;BME280;4181;43.416;24.598;2023-01-08T13:07:29;100586.84;;;12.17;100.00
8286;BME280;4181;43.416;24.598;2023-01-08T13:10:17;100595.16;;;11.73;100.00
8286;BME280;4181;43.416;24.598;2023-01-08T13:12:49;100595.84;;;11.80;100.00
8286;BME280;4181;43.416;24.598;2023-01-08T13:15:24;100596.16;;;11.55;100.00
8286;BME280;4181;43.416;24.598;2023-01-08T13:17:51;100590.94;;;11.37;100.00
8286;BME280;4181;43.416;24.598;2023-01-08T13:20:23;100594.50;;;11.37;100.00
8286;BME280;4181;43.416;24.598;2023-01-08T13:23:01;100584.78;;;11.58;100.00
8286;BME280;4181;43.416;24.598;2023-01-08T13:25:37;100587.47;;;11.41;100.00
8286;BME280;4181;43.416;24.598;2023-01-08T13:30:51;100581.03;;;11.47;100.00
8286;BME280;4181;43.416;24.598;2023-01-08T13:33:27;100588.28;;;11.42;100.00
8286;BME280;4181;43.416;24.598;2023-01-08T13:36:27;100586.41;;;11.14;100.00
8286;BME280;4181;43.416;24.598;2023-01-08T13:41:36;100580.16;;;11.30;100.00
8286;BME280;4181;43.416;24.598;2023-01-08T13:44:26;100581.09;;;11.08;100.00
8286;BME280;4181;43.416;24.598;2023-01-08T13:46:54;100583.72;;;10.63;100.00
8286;BME280;4181;43.416;24.598;2023-01-08T13:51:52;100581.94;;;10.69;100.00
8286;BME280;4181;43.416;24.598;2023-01-08T13:54:21;100591.56;;;10.60;100.00
8286;BME280;4181;43.416;24.598;2023-01-08T13:56:52;100589.31;;;10.57;100.00
8286;BME280;4181;43.416;24.598;2023-01-08T14:01:53;100600.84;;;10.47;100.00
8286;BME280;4181;43.416;24.598;2023-01-08T14:04:21;100600.50;;;10.32;100.00
8286;BME280;4181;43.416;24.598;2023-01-08T14:06:47;100599.53;;;10.27;100.00
8286;BME280;4181;43.416;24.598;2023-01-08T14:09:20;100590.41;;;10.44;100.00
8286;BME280;4181;43.416;24.598;2023-01-08T14:11:47;100600.97;;;10.17;100.00
8286;BME280;4181;43.416;24.598;2023-01-08T14:14:17;100602.16;;;10.10;100.00
8286;BME280;4181;43.416;24.598;2023-01-08T14:16:46;100594.78;;;9.87;100.00
8286;BME280;4181;43.416;24.598;2023-01-08T14:19:24;100606.06;;;9.50;100.00
8286;BME280;4181;43.416;24.598;2023-01-08T14:21:52;100594.97;;;8.92;100.00
8286;BME280;4181;43.416;24.598;2023-01-08T14:24:18;100592.34;;;9.15;100.00
8286;BME280;4181;43.416;24.598;2023-01-08T14:26:56;100584.25;;;9.09;100.00
8286;BME280;4181;43.416;24.598;2023-01-08T14:29:24;100585.78;;;9.05;100.00